• Join FlightAware (Why Join?)
  • Login
  • US Flag 
04:54AM EDT


 

Airport Tracker/Info


-or-


 

Live Flight TrackerFlight Track Log ✈ DAL3676 ✈ 31-Aug-2013 ✈ KMSP - KGFK

Flight Track Log - Related Links

Times and Time Zones

All times are in EDT time to prevent confusion due to time zone crossing. See the DAL3676 flight status page for this flight to view local times or setup timezone preferences in your user account.

Time Position Orientation Groundspeed Altitude Reporting Facility
EDT Latitude Longitude Course Direction KTS MPH feet Rate Location/Type
07:00PM 44.8667 -93.1333 71° East 192 221 2,600  Level Minneapolis TRACON
07:01PM 44.8833 -93.0667 71° East 238 274 4,900 2,100 Climbing Minneapolis TRACON
07:02PM 44.9333 -93.0167 35° Northeast 256 295 6,700 2,040 Climbing Minneapolis TRACON
07:03PM 45.0394 -92.9689 18° North 288 331 10,000 2,280 Climbing Minneapolis Center
07:04PM 45.1192 -92.9572 North 289 333 12,400 2,220 Climbing Minneapolis Center
07:05PM 45.2011 -92.9464 North 297 342 14,600 1,920 Climbing Minneapolis Center
07:06PM 45.2844 -92.9300 North 303 349 16,400 1,800 Climbing Minneapolis Center
07:07PM 45.3714 -92.9039 12° North 318 366 18,300 1,620 Climbing Minneapolis Center
07:09PM 45.4775 -92.8747 11° North 322 371 19,800 1,440 Climbing Minneapolis Center
07:10PM 45.5717 -92.8494 11° North 337 388 21,300 1,440 Climbing Minneapolis Center
07:11PM 45.6661 -92.8214 12° North 345 397 22,800 1,320 Climbing Minneapolis Center
07:12PM 45.7594 -92.7919 12° North 345 397 24,000 540 Climbing Minneapolis Center
07:13PM 45.8583 -92.7739 North 359 413 24,000  Level Minneapolis Center
07:14PM 45.9647 -92.8014 350° North 383 441 24,000  Level Minneapolis Center
07:15PM 46.0692 -92.8467 343° North 391 450 24,000  Level Minneapolis Center
07:16PM 46.1858 -92.8303 North 423 487 24,000  Level Minneapolis Center
07:17PM 46.3161 -92.7700 18° North 445 512 24,000  Level Minneapolis Center
07:18PM 46.4317 -92.7003 23° Northeast 450 518 24,000  Level Minneapolis Center
07:19PM 46.5453 -92.6139 28° Northeast 457 526 24,000  Level Minneapolis Center
07:20PM 46.6508 -92.5083 34° Northeast 461 531 24,000  Level Minneapolis Center
07:21PM 46.7497 -92.3956 38° Northeast 458 527 24,000 -60 Level Minneapolis Center
07:22PM 46.8597 -92.3339 21° North 439 505 23,900  Descending Minneapolis Center
07:23PM 46.9933 -92.3361 359° North 409 471 24,000  Climbing Minneapolis Center
07:24PM 47.0986 -92.3744 346° North 395 455 24,000  Level Minneapolis Center
07:25PM 47.2000 -92.4239 342° North 389 448 24,000  Level Minneapolis Center
07:26PM 47.2919 -92.5067 329° Northwest 390 449 24,000  Level Minneapolis Center
07:27PM 47.3667 -92.6217 314° West 390 449 24,000  Level Minneapolis Center
07:28PM 47.4431 -92.7372 314° West 395 455 24,000  Level Minneapolis Center
07:29PM 47.4953 -92.8794 299° West 397 457 24,000  Level Minneapolis Center
07:30PM 47.5594 -93.0394 301° West 388 447 24,000  Level Minneapolis Center
07:31PM 47.5956 -93.1725 292° West 360 414 24,000 -60 Level Minneapolis Center
07:32PM 47.6142 -93.3117 281° West 350 403 23,900  Descending Minneapolis Center
07:33PM 47.6358 -93.4494 283° West 348 400 24,000  Climbing Minneapolis Center
07:34PM 47.6503 -93.5900 279° West 348 400 24,000 -60 Level Minneapolis Center
07:35PM 47.6631 -93.7311 278° West 348 400 23,900 -600 Descending Minneapolis Center
07:36PM 47.6772 -93.8767 278° West 352 405 22,800 -1,080 Descending Minneapolis Center
07:37PM 47.6903 -94.0236 278° West 358 412 21,800 -1,080 Descending Minneapolis Center
07:38PM 47.7069 -94.2019 278° West 363 418 20,700 -900 Descending Minneapolis Center
07:39PM 47.7194 -94.3506 277° West 364 419 20,000 -360 Descending Minneapolis Center
07:40PM 47.7328 -94.4889 278° West 348 400 20,000  Level Minneapolis Center
07:41PM 47.7458 -94.6242 278° West 335 386 20,000  Level Minneapolis Center
07:42PM 47.7581 -94.7647 277° West 341 392 20,000  Level Minneapolis Center
07:43PM 47.7678 -94.8778 277° West 344 396 20,000  Level Minneapolis Center
07:44PM 47.7842 -95.0456 278° West 343 395 20,000  Level Minneapolis Center
07:45PM 47.7944 -95.1878 276° West 347 399 20,000  Level Minneapolis Center
07:46PM 47.8058 -95.3303 277° West 348 400 20,000  Level Minneapolis Center
07:47PM 47.8178 -95.4733 277° West 349 402 20,000  Level Minneapolis Center
07:48PM 47.8319 -95.6219 278° West 345 397 20,000 -480 Level Minneapolis Center
07:49PM 47.8422 -95.7633 276° West 345 397 19,100 -1,620 Descending Minneapolis Center
07:50PM 47.8531 -95.8939 277° West 327 376 16,800 -2,160 Descending Minneapolis Center
07:51PM 47.8644 -96.0472 276° West 313 360 14,800 -1,800 Descending Minneapolis Center
07:52PM 47.8744 -96.1767 277° West 315 362 13,200 -1,620 Descending Minneapolis Center
07:53PM 47.8778 -96.3047 272° West 312 359 11,600 -1,560 Descending Minneapolis Center
07:54PM 47.8728 -96.4139 266° West 277 319 10,100 -1,440 Descending Minneapolis Center
07:55PM 47.8706 -96.5250 268° West 247 284 8,600 -1,440 Descending Minneapolis Center
07:56PM 47.8672 -96.6161 267° West 245 282 7,300 -1,500 Descending Minneapolis Center
07:57PM 47.8625 -96.7197 266° West 245 282 5,800 -1,500 Descending Minneapolis Center
07:58PM 47.8594 -96.8167 267° West 245 282 4,300 -1,380 Descending Minneapolis Center
07:59PM 47.8547 -96.9203 266° West 236 272 3,000 -840 Descending Minneapolis Center
08:00PM 47.8533 -97.0139 269° West 225 259 2,700 -120 Descending Minneapolis Center
08:01PM 47.8461 -97.0864 262° West 176 203 2,800  Climbing Minneapolis Center
08:02PM 47.8450 -97.1583 269° West 165 190 2,800 -300 Level Minneapolis Center
08:03PM 47.8700 -97.1822 327° Northwest 122 140 2,200 -600 Descending Minneapolis Center
08:04PM 47.9033 -97.1800 North 112 129 1,600 -480 Descending Minneapolis Center
08:06PM 47.9417 -97.1844 356° North 117 135 1,100 -420 Descending Minneapolis Center